sensor_id;sensor_type;location;lat;lon;timestamp;P1;durP1;ratioP1;P2;durP2;ratioP2
6017;SDS011;3037;51.068;13.780;2022-08-18T00:01:00;5.37;;;4.97;;
6017;SDS011;3037;51.068;13.780;2022-08-18T00:03:25;6.60;;;4.70;;
6017;SDS011;3037;51.068;13.780;2022-08-18T00:05:54;4.83;;;4.50;;
6017;SDS011;3037;51.068;13.780;2022-08-18T00:08:20;16.03;;;5.10;;
6017;SDS011;3037;51.068;13.780;2022-08-18T00:10:45;6.17;;;5.70;;
6017;SDS011;3037;51.068;13.780;2022-08-18T00:13:11;6.30;;;5.43;;
6017;SDS011;3037;51.068;13.780;2022-08-18T00:15:36;5.20;;;4.60;;
6017;SDS011;3037;51.068;13.780;2022-08-18T00:18:02;6.03;;;5.30;;
6017;SDS011;3037;51.068;13.780;2022-08-18T00:20:27;5.50;;;5.00;;
6017;SDS011;3037;51.068;13.780;2022-08-18T00:22:53;6.13;;;5.53;;
6017;SDS011;3037;51.068;13.780;2022-08-18T00:25:20;5.23;;;4.73;;
6017;SDS011;3037;51.068;13.780;2022-08-18T00:27:46;15.57;;;5.53;;
6017;SDS011;3037;51.068;13.780;2022-08-18T00:30:16;6.17;;;5.63;;
6017;SDS011;3037;51.068;13.780;2022-08-18T00:32:44;6.13;;;5.70;;
6017;SDS011;3037;51.068;13.780;2022-08-18T00:35:17;6.30;;;5.30;;
6017;SDS011;3037;51.068;13.780;2022-08-18T00:37:51;6.20;;;5.53;;
6017;SDS011;3037;51.068;13.780;2022-08-18T00:40:19;7.63;;;4.80;;
6017;SDS011;3037;51.068;13.780;2022-08-18T00:42:48;9.20;;;6.07;;
6017;SDS011;3037;51.068;13.780;2022-08-18T00:45:18;6.07;;;5.57;;
6017;SDS011;3037;51.068;13.780;2022-08-18T00:47:45;5.90;;;5.43;;
6017;SDS011;3037;51.068;13.780;2022-08-18T00:50:12;5.97;;;5.47;;
6017;SDS011;3037;51.068;13.780;2022-08-18T00:52:43;14.17;;;6.90;;
6017;SDS011;3037;51.068;13.780;2022-08-18T00:55:11;14.63;;;7.27;;
6017;SDS011;3037;51.068;13.780;2022-08-18T00:57:37;6.33;;;5.83;;
6017;SDS011;3037;51.068;13.780;2022-08-18T01:00:05;6.80;;;6.07;;
6017;SDS011;3037;51.068;13.780;2022-08-18T01:02:41;9.50;;;4.93;;
6017;SDS011;3037;51.068;13.780;2022-08-18T01:07:54;6.57;;;6.03;;
6017;SDS011;3037;51.068;13.780;2022-08-18T01:10:21;6.83;;;6.23;;
6017;SDS011;3037;51.068;13.780;2022-08-18T01:12:54;8.87;;;5.73;;
6017;SDS011;3037;51.068;13.780;2022-08-18T01:15:21;10.50;;;6.23;;
6017;SDS011;3037;51.068;13.780;2022-08-18T01:17:48;11.70;;;6.50;;
6017;SDS011;3037;51.068;13.780;2022-08-18T01:20:35;7.33;;;6.20;;
6017;SDS011;3037;51.068;13.780;2022-08-18T01:23:24;7.03;;;6.53;;
6017;SDS011;3037;51.068;13.780;2022-08-18T01:25:51;5.83;;;5.33;;
6017;SDS011;3037;51.068;13.780;2022-08-18T01:28:26;5.90;;;5.50;;
6017;SDS011;3037;51.068;13.780;2022-08-18T01:30:57;7.57;;;6.40;;
6017;SDS011;3037;51.068;13.780;2022-08-18T01:33:26;7.90;;;5.70;;
6017;SDS011;3037;51.068;13.780;2022-08-18T01:36:00;6.13;;;5.73;;
6017;SDS011;3037;51.068;13.780;2022-08-18T01:38:32;6.63;;;6.13;;
6017;SDS011;3037;51.068;13.780;2022-08-18T01:40:57;5.90;;;5.33;;
6017;SDS011;3037;51.068;13.780;2022-08-18T01:43:24;6.77;;;6.10;;
6017;SDS011;3037;51.068;13.780;2022-08-18T01:45:50;8.87;;;6.00;;
6017;SDS011;3037;51.068;13.780;2022-08-18T01:48:16;6.33;;;5.90;;
6017;SDS011;3037;51.068;13.780;2022-08-18T01:50:41;13.93;;;6.50;;
6017;SDS011;3037;51.068;13.780;2022-08-18T01:53:08;6.70;;;6.10;;
6017;SDS011;3037;51.068;13.780;2022-08-18T01:55:35;6.17;;;5.70;;
6017;SDS011;3037;51.068;13.780;2022-08-18T01:58:02;11.10;;;5.83;;
6017;SDS011;3037;51.068;13.780;2022-08-18T02:00:29;8.30;;;5.87;;
6017;SDS011;3037;51.068;13.780;2022-08-18T02:02:56;7.47;;;6.10;;
6017;SDS011;3037;51.068;13.780;2022-08-18T02:05:26;6.87;;;6.23;;
6017;SDS011;3037;51.068;13.780;2022-08-18T02:08:23;6.10;;;5.70;;
6017;SDS011;3037;51.068;13.780;2022-08-18T02:10:48;9.73;;;5.70;;
6017;SDS011;3037;51.068;13.780;2022-08-18T02:13:14;6.53;;;6.03;;
6017;SDS011;3037;51.068;13.780;2022-08-18T02:15:39;6.57;;;6.03;;
6017;SDS011;3037;51.068;13.780;2022-08-18T02:18:06;7.07;;;6.30;;
6017;SDS011;3037;51.068;13.780;2022-08-18T02:20:40;6.90;;;6.30;;
6017;SDS011;3037;51.068;13.780;2022-08-18T02:23:07;7.20;;;6.10;;
6017;SDS011;3037;51.068;13.780;2022-08-18T02:25:33;8.60;;;5.90;;
6017;SDS011;3037;51.068;13.780;2022-08-18T02:27:58;6.73;;;6.13;;
6017;SDS011;3037;51.068;13.780;2022-08-18T02:30:24;8.60;;;6.77;;
6017;SDS011;3037;51.068;13.780;2022-08-18T02:32:50;10.03;;;7.00;;
6017;SDS011;3037;51.068;13.780;2022-08-18T02:35:15;9.03;;;6.80;;
6017;SDS011;3037;51.068;13.780;2022-08-18T02:37:41;8.00;;;6.80;;
6017;SDS011;3037;51.068;13.780;2022-08-18T02:40:12;6.63;;;6.23;;
6017;SDS011;3037;51.068;13.780;2022-08-18T02:42:38;7.23;;;6.30;;
6017;SDS011;3037;51.068;13.780;2022-08-18T02:45:04;6.57;;;5.97;;
6017;SDS011;3037;51.068;13.780;2022-08-18T02:47:30;7.03;;;6.40;;
6017;SDS011;3037;51.068;13.780;2022-08-18T02:49:56;7.00;;;6.30;;
6017;SDS011;3037;51.068;13.780;2022-08-18T02:52:21;9.17;;;6.63;;
6017;SDS011;3037;51.068;13.780;2022-08-18T02:54:48;9.60;;;6.50;;
6017;SDS011;3037;51.068;13.780;2022-08-18T02:57:13;12.83;;;6.60;;
6017;SDS011;3037;51.068;13.780;2022-08-18T02:59:39;8.17;;;6.13;;
6017;SDS011;3037;51.068;13.780;2022-08-18T03:02:06;6.93;;;6.43;;
6017;SDS011;3037;51.068;13.780;2022-08-18T03:04:33;8.07;;;7.20;;
6017;SDS011;3037;51.068;13.780;2022-08-18T03:06:59;6.67;;;6.07;;
6017;SDS011;3037;51.068;13.780;2022-08-18T03:09:28;9.50;;;6.20;;
6017;SDS011;3037;51.068;13.780;2022-08-18T03:11:54;7.57;;;6.77;;
6017;SDS011;3037;51.068;13.780;2022-08-18T03:14:20;6.23;;;5.67;;
6017;SDS011;3037;51.068;13.780;2022-08-18T03:16:46;6.73;;;6.03;;
6017;SDS011;3037;51.068;13.780;2022-08-18T03:19:13;7.97;;;6.70;;
6017;SDS011;3037;51.068;13.780;2022-08-18T03:21:40;8.30;;;6.37;;
6017;SDS011;3037;51.068;13.780;2022-08-18T03:24:07;13.40;;;6.23;;
6017;SDS011;3037;51.068;13.780;2022-08-18T03:26:32;6.33;;;5.83;;
6017;SDS011;3037;51.068;13.780;2022-08-18T03:28:58;6.83;;;6.27;;
6017;SDS011;3037;51.068;13.780;2022-08-18T03:31:25;6.67;;;5.93;;
6017;SDS011;3037;51.068;13.780;2022-08-18T03:33:52;6.70;;;6.20;;
6017;SDS011;3037;51.068;13.780;2022-08-18T03:36:20;12.00;;;7.10;;
6017;SDS011;3037;51.068;13.780;2022-08-18T03:38:48;10.80;;;6.57;;
6017;SDS011;3037;51.068;13.780;2022-08-18T03:41:15;6.63;;;5.80;;
6017;SDS011;3037;51.068;13.780;2022-08-18T03:43:43;7.00;;;6.27;;
6017;SDS011;3037;51.068;13.780;2022-08-18T03:46:10;6.60;;;6.20;;
6017;SDS011;3037;51.068;13.780;2022-08-18T03:48:37;9.20;;;6.23;;
6017;SDS011;3037;51.068;13.780;2022-08-18T03:51:06;6.73;;;6.27;;
6017;SDS011;3037;51.068;13.780;2022-08-18T03:53:33;6.80;;;5.97;;
6017;SDS011;3037;51.068;13.780;2022-08-18T03:56:00;10.07;;;5.90;;
6017;SDS011;3037;51.068;13.780;2022-08-18T03:58:25;21.83;;;6.10;;
6017;SDS011;3037;51.068;13.780;2022-08-18T04:00:51;6.83;;;6.33;;
6017;SDS011;3037;51.068;13.780;2022-08-18T04:03:17;6.80;;;6.13;;
6017;SDS011;3037;51.068;13.780;2022-08-18T04:05:42;7.37;;;6.70;;
6017;SDS011;3037;51.068;13.780;2022-08-18T04:08:08;7.77;;;6.10;;
6017;SDS011;3037;51.068;13.780;2022-08-18T04:10:34;8.60;;;6.27;;
6017;SDS011;3037;51.068;13.780;2022-08-18T04:13:00;6.43;;;5.43;;
6017;SDS011;3037;51.068;13.780;2022-08-18T04:15:29;9.10;;;6.50;;
6017;SDS011;3037;51.068;13.780;2022-08-18T04:17:57;7.67;;;6.80;;
6017;SDS011;3037;51.068;13.780;2022-08-18T04:20:24;9.10;;;7.20;;
6017;SDS011;3037;51.068;13.780;2022-08-18T04:22:49;7.77;;;6.23;;
6017;SDS011;3037;51.068;13.780;2022-08-18T04:25:15;7.43;;;6.73;;
6017;SDS011;3037;51.068;13.780;2022-08-18T04:27:40;10.23;;;7.90;;
6017;SDS011;3037;51.068;13.780;2022-08-18T04:30:07;7.03;;;6.40;;
6017;SDS011;3037;51.068;13.780;2022-08-18T04:32:35;8.30;;;6.83;;
6017;SDS011;3037;51.068;13.780;2022-08-18T04:35:01;8.93;;;6.87;;
6017;SDS011;3037;51.068;13.780;2022-08-18T04:37:26;9.80;;;7.37;;
6017;SDS011;3037;51.068;13.780;2022-08-18T04:39:55;7.30;;;6.60;;
6017;SDS011;3037;51.068;13.780;2022-08-18T04:42:20;10.00;;;6.67;;
6017;SDS011;3037;51.068;13.780;2022-08-18T04:44:46;7.17;;;6.53;;
6017;SDS011;3037;51.068;13.780;2022-08-18T04:47:11;6.67;;;6.10;;
6017;SDS011;3037;51.068;13.780;2022-08-18T04:49:37;6.77;;;6.10;;
6017;SDS011;3037;51.068;13.780;2022-08-18T04:52:03;7.90;;;7.10;;
6017;SDS011;3037;51.068;13.780;2022-08-18T04:54:49;7.73;;;6.90;;
6017;SDS011;3037;51.068;13.780;2022-08-18T04:57:15;9.40;;;6.73;;
6017;SDS011;3037;51.068;13.780;2022-08-18T04:59:43;7.90;;;7.20;;
6017;SDS011;3037;51.068;13.780;2022-08-18T05:02:10;7.90;;;7.13;;
6017;SDS011;3037;51.068;13.780;2022-08-18T05:04:37;6.77;;;6.17;;
6017;SDS011;3037;51.068;13.780;2022-08-18T05:07:06;7.90;;;6.97;;
6017;SDS011;3037;51.068;13.780;2022-08-18T05:09:33;7.73;;;7.03;;
6017;SDS011;3037;51.068;13.780;2022-08-18T05:12:00;13.43;;;7.50;;
6017;SDS011;3037;51.068;13.780;2022-08-18T05:14:30;6.83;;;6.43;;
6017;SDS011;3037;51.068;13.780;2022-08-18T05:16:59;7.80;;;7.10;;
6017;SDS011;3037;51.068;13.780;2022-08-18T05:19:25;10.47;;;7.40;;
6017;SDS011;3037;51.068;13.780;2022-08-18T05:21:51;7.93;;;7.33;;
6017;SDS011;3037;51.068;13.780;2022-08-18T05:24:18;9.97;;;6.70;;
6017;SDS011;3037;51.068;13.780;2022-08-18T05:26:45;8.70;;;7.03;;
6017;SDS011;3037;51.068;13.780;2022-08-18T05:29:14;7.40;;;6.70;;
6017;SDS011;3037;51.068;13.780;2022-08-18T05:31:40;8.27;;;7.40;;
6017;SDS011;3037;51.068;13.780;2022-08-18T05:34:06;7.83;;;7.10;;
6017;SDS011;3037;51.068;13.780;2022-08-18T05:41:51;12.10;;;7.07;;
6017;SDS011;3037;51.068;13.780;2022-08-18T05:44:26;7.53;;;6.90;;
6017;SDS011;3037;51.068;13.780;2022-08-18T05:49:34;8.37;;;6.63;;
6017;SDS011;3037;51.068;13.780;2022-08-18T05:52:08;7.70;;;7.00;;
6017;SDS011;3037;51.068;13.780;2022-08-18T05:54:47;13.13;;;6.63;;
6017;SDS011;3037;51.068;13.780;2022-08-18T06:00:23;8.37;;;7.57;;
6017;SDS011;3037;51.068;13.780;2022-08-18T06:02:57;11.90;;;7.83;;
6017;SDS011;3037;51.068;13.780;2022-08-18T06:05:29;16.53;;;7.37;;
6017;SDS011;3037;51.068;13.780;2022-08-18T06:08:00;8.73;;;7.37;;
6017;SDS011;3037;51.068;13.780;2022-08-18T06:10:29;8.27;;;6.33;;
6017;SDS011;3037;51.068;13.780;2022-08-18T06:12:56;7.37;;;6.77;;
6017;SDS011;3037;51.068;13.780;2022-08-18T06:15:26;7.70;;;6.50;;
6017;SDS011;3037;51.068;13.780;2022-08-18T06:21:09;8.07;;;6.47;;
6017;SDS011;3037;51.068;13.780;2022-08-18T06:23:50;7.70;;;6.83;;
6017;SDS011;3037;51.068;13.780;2022-08-18T06:30:10;9.47;;;6.80;;
6017;SDS011;3037;51.068;13.780;2022-08-18T06:33:06;9.67;;;7.47;;
6017;SDS011;3037;51.068;13.780;2022-08-18T06:35:43;9.10;;;6.80;;
6017;SDS011;3037;51.068;13.780;2022-08-18T06:38:14;9.93;;;7.27;;
6017;SDS011;3037;51.068;13.780;2022-08-18T06:49:06;9.60;;;6.13;;
6017;SDS011;3037;51.068;13.780;2022-08-18T06:51:34;8.27;;;6.83;;
6017;SDS011;3037;51.068;13.780;2022-08-18T06:54:45;9.53;;;7.03;;
6017;SDS011;3037;51.068;13.780;2022-08-18T06:56:47;10.80;;;7.30;;
6017;SDS011;3037;51.068;13.780;2022-08-18T06:59:16;9.70;;;6.63;;
6017;SDS011;3037;51.068;13.780;2022-08-18T07:01:43;8.07;;;6.17;;
6017;SDS011;3037;51.068;13.780;2022-08-18T07:04:11;10.50;;;6.97;;
6017;SDS011;3037;51.068;13.780;2022-08-18T07:07:11;6.70;;;6.20;;
6017;SDS011;3037;51.068;13.780;2022-08-18T07:09:39;8.10;;;6.30;;
6017;SDS011;3037;51.068;13.780;2022-08-18T07:12:06;11.00;;;6.67;;
6017;SDS011;3037;51.068;13.780;2022-08-18T07:17:31;8.57;;;6.97;;
6017;SDS011;3037;51.068;13.780;2022-08-18T07:20:00;14.03;;;6.57;;
6017;SDS011;3037;51.068;13.780;2022-08-18T07:22:29;7.23;;;6.53;;
6017;SDS011;3037;51.068;13.780;2022-08-18T07:24:55;6.90;;;6.40;;
6017;SDS011;3037;51.068;13.780;2022-08-18T07:27:41;7.67;;;6.87;;
6017;SDS011;3037;51.068;13.780;2022-08-18T07:32:47;8.63;;;7.50;;
6017;SDS011;3037;51.068;13.780;2022-08-18T07:35:18;7.67;;;6.93;;
6017;SDS011;3037;51.068;13.780;2022-08-18T07:40:28;9.67;;;6.80;;
6017;SDS011;3037;51.068;13.780;2022-08-18T07:43:04;12.90;;;7.23;;
6017;SDS011;3037;51.068;13.780;2022-08-18T07:45:51;10.33;;;7.50;;
6017;SDS011;3037;51.068;13.780;2022-08-18T07:48:24;8.33;;;7.57;;
6017;SDS011;3037;51.068;13.780;2022-08-18T07:51:10;8.90;;;7.63;;
6017;SDS011;3037;51.068;13.780;2022-08-18T07:53:49;9.43;;;6.63;;
6017;SDS011;3037;51.068;13.780;2022-08-18T07:56:36;10.13;;;6.60;;
6017;SDS011;3037;51.068;13.780;2022-08-18T08:07:20;13.23;;;7.20;;
6017;SDS011;3037;51.068;13.780;2022-08-18T08:12:44;7.77;;;7.07;;
6017;SDS011;3037;51.068;13.780;2022-08-18T08:15:39;12.70;;;6.77;;
6017;SDS011;3037;51.068;13.780;2022-08-18T08:18:16;14.23;;;7.80;;
6017;SDS011;3037;51.068;13.780;2022-08-18T08:21:00;11.23;;;7.10;;
6017;SDS011;3037;51.068;13.780;2022-08-18T08:23:35;8.07;;;6.50;;
6017;SDS011;3037;51.068;13.780;2022-08-18T08:26:25;11.53;;;7.40;;
6017;SDS011;3037;51.068;13.780;2022-08-18T08:29:11;8.43;;;7.47;;
6017;SDS011;3037;51.068;13.780;2022-08-18T08:34:50;8.50;;;7.17;;
6017;SDS011;3037;51.068;13.780;2022-08-18T08:37:23;7.67;;;6.93;;
6017;SDS011;3037;51.068;13.780;2022-08-18T08:40:08;8.00;;;7.17;;
6017;SDS011;3037;51.068;13.780;2022-08-18T08:42:45;15.33;;;7.60;;
6017;SDS011;3037;51.068;13.780;2022-08-18T08:45:20;9.70;;;6.80;;
6017;SDS011;3037;51.068;13.780;2022-08-18T08:48:04;10.83;;;6.77;;
6017;SDS011;3037;51.068;13.780;2022-08-18T08:51:27;21.03;;;8.10;;
6017;SDS011;3037;51.068;13.780;2022-08-18T08:53:41;11.00;;;6.67;;
6017;SDS011;3037;51.068;13.780;2022-08-18T08:56:13;7.97;;;7.27;;
6017;SDS011;3037;51.068;13.780;2022-08-18T08:58:57;8.30;;;7.07;;
6017;SDS011;3037;51.068;13.780;2022-08-18T09:09:47;7.53;;;6.83;;
6017;SDS011;3037;51.068;13.780;2022-08-18T09:15:15;7.13;;;6.53;;
6017;SDS011;3037;51.068;13.780;2022-08-18T09:24:20;10.07;;;6.90;;
6017;SDS011;3037;51.068;13.780;2022-08-18T09:27:11;8.30;;;7.43;;
6017;SDS011;3037;51.068;13.780;2022-08-18T09:29:47;11.30;;;6.27;;
6017;SDS011;3037;51.068;13.780;2022-08-18T09:37:54;12.07;;;7.33;;
6017;SDS011;3037;51.068;13.780;2022-08-18T09:40:44;8.80;;;6.40;;
6017;SDS011;3037;51.068;13.780;2022-08-18T09:43:54;7.83;;;6.70;;
6017;SDS011;3037;51.068;13.780;2022-08-18T09:54:58;8.53;;;7.43;;
6017;SDS011;3037;51.068;13.780;2022-08-18T10:06:40;9.10;;;7.53;;
6017;SDS011;3037;51.068;13.780;2022-08-18T10:12:00;9.17;;;7.00;;
6017;SDS011;3037;51.068;13.780;2022-08-18T10:17:39;17.97;;;7.13;;
6017;SDS011;3037;51.068;13.780;2022-08-18T10:23:50;6.70;;;6.10;;
6017;SDS011;3037;51.068;13.780;2022-08-18T10:26:56;13.30;;;8.10;;
6017;SDS011;3037;51.068;13.780;2022-08-18T10:34:38;20.50;;;7.13;;
6017;SDS011;3037;51.068;13.780;2022-08-18T10:39:54;7.53;;;6.90;;
6017;SDS011;3037;51.068;13.780;2022-08-18T10:42:26;17.67;;;6.53;;
6017;SDS011;3037;51.068;13.780;2022-08-18T10:47:39;6.87;;;6.37;;
6017;SDS011;3037;51.068;13.780;2022-08-18T10:50:28;9.67;;;6.67;;
6017;SDS011;3037;51.068;13.780;2022-08-18T10:53:15;12.23;;;5.63;;
6017;SDS011;3037;51.068;13.780;2022-08-18T10:58:43;11.17;;;5.90;;
6017;SDS011;3037;51.068;13.780;2022-08-18T11:01:27;17.50;;;5.23;;
6017;SDS011;3037;51.068;13.780;2022-08-18T11:06:27;12.40;;;5.10;;
6017;SDS011;3037;51.068;13.780;2022-08-18T11:08:57;8.00;;;6.10;;
6017;SDS011;3037;51.068;13.780;2022-08-18T11:11:27;12.37;;;6.10;;
6017;SDS011;3037;51.068;13.780;2022-08-18T11:17:09;6.57;;;6.07;;
6017;SDS011;3037;51.068;13.780;2022-08-18T11:19:57;9.87;;;5.97;;
6017;SDS011;3037;51.068;13.780;2022-08-18T11:22:25;11.33;;;5.70;;
6017;SDS011;3037;51.068;13.780;2022-08-18T11:24:55;14.10;;;5.20;;
6017;SDS011;3037;51.068;13.780;2022-08-18T11:27:23;23.50;;;7.30;;
6017;SDS011;3037;51.068;13.780;2022-08-18T11:29:50;15.40;;;6.33;;
6017;SDS011;3037;51.068;13.780;2022-08-18T11:32:36;8.93;;;5.20;;
6017;SDS011;3037;51.068;13.780;2022-08-18T11:38:00;12.63;;;5.63;;
6017;SDS011;3037;51.068;13.780;2022-08-18T11:48:18;18.73;;;5.60;;
6017;SDS011;3037;51.068;13.780;2022-08-18T11:50:57;12.87;;;6.00;;
6017;SDS011;3037;51.068;13.780;2022-08-18T12:01:28;8.90;;;7.17;;
6017;SDS011;3037;51.068;13.780;2022-08-18T12:06:51;7.83;;;6.20;;
6017;SDS011;3037;51.068;13.780;2022-08-18T12:09:34;11.97;;;6.47;;
6017;SDS011;3037;51.068;13.780;2022-08-18T12:12:17;10.20;;;6.60;;
6017;SDS011;3037;51.068;13.780;2022-08-18T12:14:54;9.40;;;6.70;;
6017;SDS011;3037;51.068;13.780;2022-08-18T12:17:26;8.50;;;6.57;;
6017;SDS011;3037;51.068;13.780;2022-08-18T12:19:53;12.03;;;6.53;;
6017;SDS011;3037;51.068;13.780;2022-08-18T12:22:23;9.33;;;6.50;;
6017;SDS011;3037;51.068;13.780;2022-08-18T12:24:51;9.60;;;6.23;;
6017;SDS011;3037;51.068;13.780;2022-08-18T12:27:19;15.83;;;7.10;;
6017;SDS011;3037;51.068;13.780;2022-08-18T12:29:47;10.27;;;6.67;;
6017;SDS011;3037;51.068;13.780;2022-08-18T12:32:14;11.03;;;6.93;;
6017;SDS011;3037;51.068;13.780;2022-08-18T12:34:40;15.00;;;6.50;;
6017;SDS011;3037;51.068;13.780;2022-08-18T12:37:06;13.67;;;6.57;;
6017;SDS011;3037;51.068;13.780;2022-08-18T12:39:32;10.07;;;6.10;;
6017;SDS011;3037;51.068;13.780;2022-08-18T12:41:59;11.30;;;7.10;;
6017;SDS011;3037;51.068;13.780;2022-08-18T12:44:26;10.40;;;5.93;;
6017;SDS011;3037;51.068;13.780;2022-08-18T12:46:52;15.97;;;6.60;;
6017;SDS011;3037;51.068;13.780;2022-08-18T12:49:19;15.43;;;5.80;;
6017;SDS011;3037;51.068;13.780;2022-08-18T12:51:47;12.00;;;6.53;;
6017;SDS011;3037;51.068;13.780;2022-08-18T12:54:14;15.30;;;6.53;;
6017;SDS011;3037;51.068;13.780;2022-08-18T12:56:41;9.13;;;6.90;;
6017;SDS011;3037;51.068;13.780;2022-08-18T12:59:08;19.87;;;6.90;;
6017;SDS011;3037;51.068;13.780;2022-08-18T13:01:35;16.43;;;7.03;;
6017;SDS011;3037;51.068;13.780;2022-08-18T13:04:02;12.30;;;6.57;;
6017;SDS011;3037;51.068;13.780;2022-08-18T13:06:28;11.07;;;6.77;;
6017;SDS011;3037;51.068;13.780;2022-08-18T13:08:57;16.10;;;6.00;;
6017;SDS011;3037;51.068;13.780;2022-08-18T13:11:23;13.70;;;6.77;;
6017;SDS011;3037;51.068;13.780;2022-08-18T13:13:49;10.43;;;7.10;;
6017;SDS011;3037;51.068;13.780;2022-08-18T13:16:16;14.17;;;6.87;;
6017;SDS011;3037;51.068;13.780;2022-08-18T13:18:42;9.53;;;6.60;;
6017;SDS011;3037;51.068;13.780;2022-08-18T13:21:09;17.13;;;7.53;;
6017;SDS011;3037;51.068;13.780;2022-08-18T13:23:36;11.60;;;7.33;;
6017;SDS011;3037;51.068;13.780;2022-08-18T13:26:03;12.57;;;6.90;;
6017;SDS011;3037;51.068;13.780;2022-08-18T13:28:31;12.10;;;6.97;;
6017;SDS011;3037;51.068;13.780;2022-08-18T13:30:58;14.97;;;7.17;;
6017;SDS011;3037;51.068;13.780;2022-08-18T13:33:23;22.57;;;7.07;;
6017;SDS011;3037;51.068;13.780;2022-08-18T13:35:49;15.43;;;7.13;;
6017;SDS011;3037;51.068;13.780;2022-08-18T13:38:17;7.50;;;6.70;;
6017;SDS011;3037;51.068;13.780;2022-08-18T13:40:50;12.33;;;7.30;;
6017;SDS011;3037;51.068;13.780;2022-08-18T13:43:19;12.03;;;7.50;;
6017;SDS011;3037;51.068;13.780;2022-08-18T13:45:47;10.17;;;7.60;;
6017;SDS011;3037;51.068;13.780;2022-08-18T13:48:14;14.53;;;6.50;;
6017;SDS011;3037;51.068;13.780;2022-08-18T13:50:40;8.00;;;7.30;;
6017;SDS011;3037;51.068;13.780;2022-08-18T13:53:11;13.03;;;9.43;;
6017;SDS011;3037;51.068;13.780;2022-08-18T13:55:39;10.03;;;8.47;;
6017;SDS011;3037;51.068;13.780;2022-08-18T13:58:05;13.83;;;7.37;;
6017;SDS011;3037;51.068;13.780;2022-08-18T14:00:30;13.00;;;7.30;;
6017;SDS011;3037;51.068;13.780;2022-08-18T14:02:57;9.50;;;6.40;;
6017;SDS011;3037;51.068;13.780;2022-08-18T14:05:24;14.77;;;6.90;;
6017;SDS011;3037;51.068;13.780;2022-08-18T14:07:50;9.10;;;6.70;;
6017;SDS011;3037;51.068;13.780;2022-08-18T14:10:15;12.10;;;6.73;;
6017;SDS011;3037;51.068;13.780;2022-08-18T14:12:41;20.27;;;6.70;;
6017;SDS011;3037;51.068;13.780;2022-08-18T14:15:10;14.17;;;7.23;;
6017;SDS011;3037;51.068;13.780;2022-08-18T14:17:37;13.93;;;6.73;;
6017;SDS011;3037;51.068;13.780;2022-08-18T14:20:03;20.67;;;6.80;;
6017;SDS011;3037;51.068;13.780;2022-08-18T14:22:49;13.07;;;7.67;;
6017;SDS011;3037;51.068;13.780;2022-08-18T14:25:35;16.40;;;6.90;;
6017;SDS011;3037;51.068;13.780;2022-08-18T14:28:19;8.57;;;7.30;;
6017;SDS011;3037;51.068;13.780;2022-08-18T14:30:45;13.27;;;7.53;;
6017;SDS011;3037;51.068;13.780;2022-08-18T14:33:11;10.50;;;6.70;;
6017;SDS011;3037;51.068;13.780;2022-08-18T14:35:39;18.00;;;7.83;;
6017;SDS011;3037;51.068;13.780;2022-08-18T14:38:05;17.93;;;7.10;;
6017;SDS011;3037;51.068;13.780;2022-08-18T14:40:32;12.53;;;7.47;;
6017;SDS011;3037;51.068;13.780;2022-08-18T14:42:58;14.13;;;7.73;;
6017;SDS011;3037;51.068;13.780;2022-08-18T14:45:26;15.03;;;7.43;;
6017;SDS011;3037;51.068;13.780;2022-08-18T14:47:53;8.57;;;7.80;;
6017;SDS011;3037;51.068;13.780;2022-08-18T14:50:20;15.97;;;8.30;;
6017;SDS011;3037;51.068;13.780;2022-08-18T14:52:46;8.30;;;6.97;;
6017;SDS011;3037;51.068;13.780;2022-08-18T14:55:13;17.60;;;7.30;;
6017;SDS011;3037;51.068;13.780;2022-08-18T14:57:41;14.03;;;7.17;;
6017;SDS011;3037;51.068;13.780;2022-08-18T15:00:08;10.43;;;7.30;;
6017;SDS011;3037;51.068;13.780;2022-08-18T15:02:37;12.03;;;7.60;;
6017;SDS011;3037;51.068;13.780;2022-08-18T15:05:04;19.00;;;8.87;;
6017;SDS011;3037;51.068;13.780;2022-08-18T15:07:32;12.37;;;8.47;;
6017;SDS011;3037;51.068;13.780;2022-08-18T15:09:58;18.00;;;8.80;;
6017;SDS011;3037;51.068;13.780;2022-08-18T15:12:24;14.97;;;8.97;;
6017;SDS011;3037;51.068;13.780;2022-08-18T15:14:51;17.43;;;8.60;;
6017;SDS011;3037;51.068;13.780;2022-08-18T15:17:17;12.73;;;8.90;;
6017;SDS011;3037;51.068;13.780;2022-08-18T15:19:42;9.23;;;8.00;;
6017;SDS011;3037;51.068;13.780;2022-08-18T15:22:11;10.10;;;7.73;;
6017;SDS011;3037;51.068;13.780;2022-08-18T15:24:55;17.37;;;8.43;;
6017;SDS011;3037;51.068;13.780;2022-08-18T15:27:39;12.33;;;8.30;;
6017;SDS011;3037;51.068;13.780;2022-08-18T15:30:06;10.63;;;8.13;;
6017;SDS011;3037;51.068;13.780;2022-08-18T15:32:35;14.53;;;8.17;;
6017;SDS011;3037;51.068;13.780;2022-08-18T15:35:02;12.90;;;7.60;;
6017;SDS011;3037;51.068;13.780;2022-08-18T15:37:27;12.40;;;7.90;;
6017;SDS011;3037;51.068;13.780;2022-08-18T15:39:58;11.07;;;7.70;;
6017;SDS011;3037;51.068;13.780;2022-08-18T15:42:45;12.13;;;8.07;;
6017;SDS011;3037;51.068;13.780;2022-08-18T15:45:15;11.23;;;7.67;;
6017;SDS011;3037;51.068;13.780;2022-08-18T15:47:42;8.77;;;7.97;;
6017;SDS011;3037;51.068;13.780;2022-08-18T15:50:08;15.03;;;7.87;;
6017;SDS011;3037;51.068;13.780;2022-08-18T15:52:35;12.60;;;7.70;;
6017;SDS011;3037;51.068;13.780;2022-08-18T15:55:01;16.17;;;8.50;;
6017;SDS011;3037;51.068;13.780;2022-08-18T15:57:27;12.03;;;8.97;;
6017;SDS011;3037;51.068;13.780;2022-08-18T15:59:54;11.20;;;8.77;;
6017;SDS011;3037;51.068;13.780;2022-08-18T16:02:20;19.50;;;8.97;;
6017;SDS011;3037;51.068;13.780;2022-08-18T16:04:47;15.90;;;8.70;;
6017;SDS011;3037;51.068;13.780;2022-08-18T16:07:12;11.50;;;8.40;;
6017;SDS011;3037;51.068;13.780;2022-08-18T16:09:39;10.40;;;8.30;;
6017;SDS011;3037;51.068;13.780;2022-08-18T16:12:06;22.87;;;8.30;;
6017;SDS011;3037;51.068;13.780;2022-08-18T16:14:35;13.37;;;9.93;;
6017;SDS011;3037;51.068;13.780;2022-08-18T16:17:02;17.30;;;7.67;;
6017;SDS011;3037;51.068;13.780;2022-08-18T16:19:27;14.20;;;8.83;;
6017;SDS011;3037;51.068;13.780;2022-08-18T16:21:54;16.00;;;8.67;;
6017;SDS011;3037;51.068;13.780;2022-08-18T16:24:20;13.83;;;8.07;;
6017;SDS011;3037;51.068;13.780;2022-08-18T16:26:47;21.13;;;8.97;;
6017;SDS011;3037;51.068;13.780;2022-08-18T16:29:13;9.30;;;8.27;;
6017;SDS011;3037;51.068;13.780;2022-08-18T16:31:38;13.13;;;8.40;;
6017;SDS011;3037;51.068;13.780;2022-08-18T16:34:05;18.83;;;9.03;;
6017;SDS011;3037;51.068;13.780;2022-08-18T16:36:30;17.37;;;8.47;;
6017;SDS011;3037;51.068;13.780;2022-08-18T16:38:56;10.30;;;8.43;;
6017;SDS011;3037;51.068;13.780;2022-08-18T16:41:22;10.30;;;8.90;;
6017;SDS011;3037;51.068;13.780;2022-08-18T16:43:48;11.50;;;8.33;;
6017;SDS011;3037;51.068;13.780;2022-08-18T16:46:15;14.70;;;8.50;;
6017;SDS011;3037;51.068;13.780;2022-08-18T16:48:42;11.27;;;9.67;;
6017;SDS011;3037;51.068;13.780;2022-08-18T16:51:11;11.90;;;8.50;;
6017;SDS011;3037;51.068;13.780;2022-08-18T16:53:40;13.43;;;9.50;;
6017;SDS011;3037;51.068;13.780;2022-08-18T16:56:10;17.60;;;9.40;;
6017;SDS011;3037;51.068;13.780;2022-08-18T16:58:37;20.83;;;8.10;;
6017;SDS011;3037;51.068;13.780;2022-08-18T17:01:21;17.53;;;8.97;;
6017;SDS011;3037;51.068;13.780;2022-08-18T17:04:05;23.80;;;8.93;;
6017;SDS011;3037;51.068;13.780;2022-08-18T17:06:31;14.90;;;8.13;;
6017;SDS011;3037;51.068;13.780;2022-08-18T17:08:58;27.50;;;9.97;;
6017;SDS011;3037;51.068;13.780;2022-08-18T17:11:24;11.37;;;9.63;;
6017;SDS011;3037;51.068;13.780;2022-08-18T17:13:51;19.00;;;9.60;;
6017;SDS011;3037;51.068;13.780;2022-08-18T17:16:18;15.73;;;9.63;;
6017;SDS011;3037;51.068;13.780;2022-08-18T17:18:46;18.20;;;9.47;;
6017;SDS011;3037;51.068;13.780;2022-08-18T17:21:13;16.00;;;9.40;;
6017;SDS011;3037;51.068;13.780;2022-08-18T17:23:41;18.07;;;8.87;;
6017;SDS011;3037;51.068;13.780;2022-08-18T17:26:08;10.50;;;9.40;;
6017;SDS011;3037;51.068;13.780;2022-08-18T17:28:51;16.10;;;9.20;;
6017;SDS011;3037;51.068;13.780;2022-08-18T17:31:21;13.13;;;10.30;;
6017;SDS011;3037;51.068;13.780;2022-08-18T17:33:48;14.00;;;9.40;;
6017;SDS011;3037;51.068;13.780;2022-08-18T17:36:18;11.93;;;10.20;;